createdAt,value
2024-01-15T00:01:53.919Z,75.45
2024-01-15T00:04:21.424Z,71.78
2024-01-15T00:06:51.037Z,74.72
2024-01-15T00:09:18.111Z,76.93
2024-01-15T00:11:45.484Z,64.87
2024-01-15T00:14:13.090Z,75.90
2024-01-15T00:16:41.871Z,68.03
2024-01-15T00:19:09.315Z,67.35
2024-01-15T00:21:36.928Z,67.25
2024-01-15T00:24:04.132Z,65.32
2024-01-15T00:26:32.033Z,70.62
2024-01-15T00:28:59.584Z,64.25
2024-01-15T00:31:27.354Z,65.82
2024-01-15T00:33:55.439Z,65.32
2024-01-15T00:36:22.589Z,62.67
2024-01-15T00:38:50.169Z,66.87
2024-01-15T00:41:19.392Z,76.03
2024-01-15T00:43:46.951Z,64.43
2024-01-15T00:46:14.075Z,67.68
2024-01-15T00:48:42.052Z,65.45
2024-01-15T00:51:09.219Z,67.25
2024-01-15T00:53:36.710Z,66.70
2024-01-15T00:56:04.361Z,63.50
2024-01-15T00:58:31.955Z,67.90
2024-01-15T01:00:59.096Z,59.88
2024-01-15T01:03:27.000Z,59.78
2024-01-15T01:05:54.133Z,66.87
2024-01-15T01:08:21.679Z,73.78
2024-01-15T01:10:48.987Z,72.87
2024-01-15T01:13:18.371Z,67.65
2024-01-15T01:15:45.548Z,68.90
2024-01-15T01:18:13.727Z,74.57
2024-01-15T01:20:40.990Z,77.85
2024-01-15T01:23:08.711Z,74.97
2024-01-15T01:25:36.050Z,69.65
2024-01-15T01:28:03.375Z,73.97
2024-01-15T01:30:31.000Z,64.90
2024-01-15T01:32:58.341Z,77.75
2024-01-15T01:35:25.958Z,69.30
2024-01-15T01:37:53.477Z,72.97
2024-01-15T01:40:20.956Z,67.15
2024-01-15T01:42:49.401Z,81.93
2024-01-15T01:45:16.537Z,91.63
2024-01-15T01:47:44.516Z,67.03
2024-01-15T01:50:13.990Z,60.33
2024-01-15T01:52:41.847Z,60.63
2024-01-15T01:55:10.414Z,59.70
2024-01-15T01:57:38.037Z,63.10
2024-01-15T02:00:07.892Z,62.70
2024-01-15T02:02:38.831Z,64.07
2024-01-15T02:05:07.290Z,64.90
2024-01-15T02:07:35.987Z,52.85
2024-01-15T02:10:03.824Z,57.35
2024-01-15T02:12:31.128Z,55.70
2024-01-15T02:14:58.183Z,60.90
2024-01-15T02:17:25.828Z,58.15
2024-01-15T02:19:53.389Z,54.00
2024-01-15T02:22:21.034Z,49.50
2024-01-15T02:24:48.256Z,60.88
2024-01-15T02:27:16.390Z,55.03
2024-01-15T02:29:43.618Z,51.63
2024-01-15T02:32:10.649Z,55.58
2024-01-15T02:34:38.516Z,54.10
2024-01-15T02:37:05.662Z,58.83
2024-01-15T02:39:35.904Z,56.17
2024-01-15T02:42:03.185Z,53.08
2024-01-15T02:44:30.188Z,75.40
2024-01-15T02:46:57.199Z,71.30
2024-01-15T02:49:24.634Z,74.90
2024-01-15T02:51:52.756Z,50.10
2024-01-15T02:54:19.798Z,72.90
2024-01-15T02:56:47.083Z,58.65
2024-01-15T02:59:14.156Z,50.83
2024-01-15T03:01:41.270Z,44.80
2024-01-15T03:04:08.683Z,47.90
2024-01-15T03:06:35.746Z,46.67
2024-01-15T03:09:04.886Z,49.20
2024-01-15T03:11:39.071Z,58.05
2024-01-15T03:16:34.088Z,45.83
2024-01-15T03:19:01.224Z,45.95
2024-01-15T03:21:28.301Z,65.30
2024-01-15T03:23:55.573Z,58.35
2024-01-15T03:26:22.597Z,46.72
2024-01-15T03:28:49.670Z,42.58
2024-01-15T03:31:17.164Z,55.70
2024-01-15T03:33:44.332Z,101.95
2024-01-15T03:36:12.238Z,46.28
2024-01-15T03:38:43.353Z,48.03
2024-01-15T03:41:10.396Z,44.42
2024-01-15T03:43:37.387Z,44.40
2024-01-15T03:46:05.517Z,46.63
2024-01-15T03:48:36.139Z,52.50
2024-01-15T03:51:03.398Z,44.40
2024-01-15T03:53:30.715Z,51.67
2024-01-15T03:55:57.732Z,51.63
2024-01-15T03:58:25.357Z,42.08
2024-01-15T04:00:52.753Z,45.10
2024-01-15T04:03:20.175Z,44.75
2024-01-15T04:05:47.340Z,52.65
2024-01-15T04:08:14.346Z,51.45
2024-01-15T04:10:41.681Z,47.05
2024-01-15T04:13:08.740Z,50.42
2024-01-15T04:15:36.017Z,54.35
2024-01-15T04:18:03.990Z,48.87
2024-01-15T04:20:31.049Z,50.83
2024-01-15T04:22:58.062Z,41.28
2024-01-15T04:25:25.336Z,54.53
2024-01-15T04:27:52.405Z,53.20
2024-01-15T04:30:19.620Z,91.18
2024-01-15T04:32:46.965Z,49.03
2024-01-15T04:35:16.364Z,45.00
2024-01-15T04:37:43.462Z,53.87
2024-01-15T04:40:11.146Z,48.97
2024-01-15T04:42:38.313Z,50.08
2024-01-15T04:45:05.604Z,49.20
2024-01-15T04:47:33.264Z,62.67
2024-01-15T04:50:00.477Z,48.87
2024-01-15T04:52:27.587Z,59.10
2024-01-15T04:54:54.953Z,65.80
2024-01-15T04:57:24.671Z,46.25
2024-01-15T04:59:51.723Z,52.65
2024-01-15T05:02:19.109Z,46.03
2024-01-15T05:04:46.130Z,42.28
2024-01-15T05:07:13.214Z,47.28
2024-01-15T05:09:40.597Z,55.15
2024-01-15T05:12:08.003Z,49.15
2024-01-15T05:14:35.067Z,47.80
2024-01-15T05:17:02.419Z,54.55
2024-01-15T05:19:29.712Z,76.62
2024-01-15T05:21:58.492Z,63.63
2024-01-15T05:24:27.630Z,55.10
2024-01-15T05:26:54.732Z,47.90
2024-01-15T05:29:21.778Z,58.13
2024-01-15T05:31:49.192Z,62.05
2024-01-15T05:34:17.167Z,68.78
2024-01-15T05:36:44.669Z,58.20
2024-01-15T05:39:11.981Z,50.88
2024-01-15T05:41:39.108Z,61.35
2024-01-15T05:44:06.912Z,55.30
2024-01-15T05:46:34.237Z,72.95
2024-01-15T05:49:01.405Z,56.28
2024-01-15T05:51:34.250Z,155.95
2024-01-15T05:54:01.571Z,78.07
2024-01-15T05:56:28.556Z,54.60
2024-01-15T05:58:55.566Z,74.30
2024-01-15T06:01:22.890Z,87.75
2024-01-15T06:03:50.268Z,54.88
2024-01-15T06:06:17.426Z,59.22
2024-01-15T06:08:44.474Z,58.35
2024-01-15T06:11:11.761Z,60.92
2024-01-15T06:13:38.855Z,53.65
2024-01-15T06:16:14.463Z,60.75
2024-01-15T06:18:42.204Z,59.58
2024-01-15T06:21:11.502Z,58.10
2024-01-15T06:23:38.736Z,59.60
2024-01-15T06:26:06.562Z,58.67
2024-01-15T06:28:36.011Z,56.97
2024-01-15T06:31:03.224Z,65.30
2024-01-15T06:33:36.206Z,60.70
2024-01-15T06:36:03.384Z,66.32
2024-01-15T06:38:30.651Z,54.53
2024-01-15T06:40:57.714Z,59.60
2024-01-15T06:43:24.752Z,55.10
2024-01-15T06:45:52.114Z,63.60
2024-01-15T06:48:19.136Z,57.50
2024-01-15T06:50:47.074Z,65.65
2024-01-15T06:53:14.376Z,79.43
2024-01-15T06:55:41.475Z,71.12
2024-01-15T06:58:09.580Z,57.25
2024-01-15T07:00:39.023Z,64.57
2024-01-15T07:03:06.613Z,70.28
2024-01-15T07:05:33.704Z,90.90
2024-01-15T07:08:01.133Z,60.72
2024-01-15T07:10:28.648Z,81.93
2024-01-15T07:12:55.744Z,63.05
2024-01-15T07:15:25.278Z,63.05
2024-01-15T07:17:52.355Z,52.42
2024-01-15T07:20:20.623Z,49.75
2024-01-15T07:22:47.996Z,56.78
2024-01-15T07:25:16.720Z,62.70
2024-01-15T07:27:47.468Z,53.90
2024-01-15T07:30:15.187Z,54.65
2024-01-15T07:32:48.543Z,54.95
2024-01-15T07:35:19.713Z,48.47
2024-01-15T07:37:48.652Z,52.95
2024-01-15T07:40:17.663Z,61.88
2024-01-15T07:42:44.862Z,54.22
2024-01-15T07:45:13.362Z,59.97
2024-01-15T07:47:40.717Z,56.50
2024-01-15T07:50:11.032Z,47.25
2024-01-15T07:52:45.343Z,56.55
2024-01-15T07:55:12.724Z,64.78
2024-01-15T07:57:40.949Z,59.13
2024-01-15T08:00:10.274Z,55.35
2024-01-15T08:02:39.637Z,56.75
2024-01-15T08:05:06.815Z,51.53
2024-01-15T08:07:33.950Z,48.17
2024-01-15T08:10:04.464Z,48.53
2024-01-15T08:12:31.665Z,52.25
2024-01-15T08:14:59.495Z,54.22
2024-01-15T08:17:30.028Z,53.83
2024-01-15T08:19:57.823Z,64.32
2024-01-15T08:22:24.923Z,51.90
2024-01-15T08:24:58.408Z,40.53
2024-01-15T08:27:25.441Z,49.35
2024-01-15T08:29:52.742Z,57.42
2024-01-15T08:32:21.817Z,59.22
2024-01-15T08:34:50.286Z,55.10
2024-01-15T08:37:18.572Z,62.70
2024-01-15T08:39:45.677Z,89.35
2024-01-15T08:42:13.235Z,57.00
2024-01-15T08:44:42.728Z,65.12
2024-01-15T08:47:11.032Z,61.13
2024-01-15T08:49:38.782Z,59.55
2024-01-15T08:52:06.747Z,58.40
2024-01-15T08:54:34.273Z,59.50
2024-01-15T08:57:01.932Z,59.25
2024-01-15T08:59:29.760Z,67.55
2024-01-15T09:01:59.818Z,73.45
2024-01-15T09:04:29.574Z,58.05
2024-01-15T09:06:58.651Z,46.37
2024-01-15T09:09:28.812Z,44.05
2024-01-15T09:11:55.849Z,44.17
2024-01-15T09:14:33.455Z,49.17
2024-01-15T09:17:07.683Z,40.75
2024-01-15T09:19:36.227Z,35.42
2024-01-15T09:22:04.777Z,39.00
2024-01-15T09:24:32.472Z,42.95
2024-01-15T09:27:00.303Z,41.78
2024-01-15T09:29:27.354Z,33.97
2024-01-15T09:31:55.341Z,38.67
2024-01-15T09:34:25.456Z,45.75
2024-01-15T09:36:53.208Z,69.97
2024-01-15T09:39:22.643Z,45.33
2024-01-15T09:41:50.797Z,49.80
2024-01-15T09:44:18.191Z,43.40
2024-01-15T09:46:48.051Z,34.60
2024-01-15T09:49:15.410Z,43.08
2024-01-15T09:51:43.393Z,24.67
2024-01-15T09:54:10.885Z,27.25
2024-01-15T09:56:40.901Z,24.40
2024-01-15T09:59:19.633Z,28.58
2024-01-15T10:01:48.920Z,25.20
2024-01-15T10:04:18.237Z,28.20
2024-01-15T10:06:48.924Z,44.15
2024-01-15T10:09:16.984Z,28.12
2024-01-15T10:11:44.806Z,21.80
2024-01-15T10:14:15.956Z,25.67
2024-01-15T10:16:44.830Z,18.02
2024-01-15T10:19:12.183Z,15.90
2024-01-15T10:21:40.321Z,20.88
2024-01-15T10:24:08.877Z,21.52
2024-01-15T10:26:35.937Z,17.37
2024-01-15T10:29:03.026Z,18.02
2024-01-15T10:31:32.063Z,12.73
2024-01-15T10:34:26.184Z,23.30
2024-01-15T10:36:58.246Z,10.10
2024-01-15T10:39:26.338Z,64.32
2024-01-15T10:41:53.702Z,12.52
2024-01-15T10:44:20.676Z,10.00
2024-01-15T10:46:48.810Z,13.15
2024-01-15T10:49:16.513Z,17.10
2024-01-15T10:51:44.356Z,19.92
2024-01-15T10:54:13.134Z,14.70
2024-01-15T10:56:40.432Z,14.38
2024-01-15T10:59:09.045Z,14.45
2024-01-15T11:01:36.379Z,8.52
2024-01-15T11:04:04.005Z,10.73
2024-01-15T11:07:00.861Z,8.48
2024-01-15T11:09:28.281Z,9.15
2024-01-15T11:12:13.819Z,7.00
2024-01-15T11:14:45.683Z,8.93
2024-01-15T11:17:14.090Z,10.02
2024-01-15T11:19:54.332Z,10.07
2024-01-15T11:22:30.821Z,11.50
2024-01-15T11:25:02.669Z,9.77
2024-01-15T11:27:44.887Z,13.20
2024-01-15T11:30:13.603Z,10.25
2024-01-15T11:32:44.705Z,10.30
2024-01-15T11:35:12.629Z,10.82
2024-01-15T11:37:53.829Z,11.57
2024-01-15T11:40:23.789Z,16.35
2024-01-15T11:42:51.023Z,30.83
2024-01-15T11:45:20.966Z,9.50
2024-01-15T11:48:01.100Z,20.00
2024-01-15T11:50:31.792Z,9.68
2024-01-15T11:53:07.322Z,15.60
2024-01-15T11:55:37.540Z,19.95
2024-01-15T11:58:13.461Z,11.40
2024-01-15T12:00:51.104Z,11.70
2024-01-15T12:03:18.604Z,8.73
2024-01-15T12:05:45.675Z,15.00
2024-01-15T12:08:23.610Z,10.37
2024-01-15T12:10:51.208Z,8.13
2024-01-15T12:13:20.889Z,10.60
2024-01-15T12:15:49.340Z,64.00
2024-01-15T12:18:19.339Z,31.73
2024-01-15T12:20:51.350Z,31.83
2024-01-15T12:23:19.173Z,15.07
2024-01-15T12:25:48.096Z,6.75
2024-01-15T12:28:17.301Z,13.18
2024-01-15T12:30:50.088Z,11.05
2024-01-15T12:33:18.969Z,29.75
2024-01-15T12:35:46.258Z,13.95
2024-01-15T12:38:13.436Z,7.62
2024-01-15T12:40:47.357Z,7.45
2024-01-15T12:43:14.713Z,14.02
2024-01-15T12:45:41.823Z,11.15
2024-01-15T12:48:10.701Z,11.02
2024-01-15T12:50:38.047Z,8.52
2024-01-15T12:53:05.220Z,7.60
2024-01-15T12:55:32.517Z,10.52
2024-01-15T12:57:59.848Z,5.28
2024-01-15T13:00:27.406Z,5.68
2024-01-15T13:02:56.133Z,6.03
2024-01-15T13:05:24.263Z,4.32
2024-01-15T13:07:51.773Z,5.55
2024-01-15T13:10:18.852Z,4.12
2024-01-15T13:12:47.375Z,6.65
2024-01-15T13:15:15.610Z,11.77
2024-01-15T13:17:44.233Z,5.03
2024-01-15T13:20:13.555Z,40.47
2024-01-15T13:22:44.777Z,12.63
2024-01-15T13:25:12.673Z,26.27
2024-01-15T13:27:41.716Z,8.30
2024-01-15T13:30:10.177Z,8.43
2024-01-15T13:32:39.069Z,6.28
2024-01-15T13:35:10.990Z,6.80
2024-01-15T13:37:39.120Z,6.03
2024-01-15T13:40:08.856Z,13.95
2024-01-15T13:42:39.361Z,8.45
2024-01-15T13:45:07.281Z,7.50
2024-01-15T13:47:34.399Z,4.40
2024-01-15T13:50:03.260Z,7.40
2024-01-15T13:52:31.371Z,5.95
2024-01-15T13:54:58.459Z,7.22
2024-01-15T13:57:26.002Z,5.47
2024-01-15T13:59:53.344Z,6.12
2024-01-15T14:02:22.835Z,8.10
2024-01-15T14:04:52.077Z,6.55
2024-01-15T14:07:19.173Z,16.48
2024-01-15T14:09:46.297Z,6.10
2024-01-15T14:12:14.272Z,8.32
2024-01-15T14:14:41.730Z,8.55
2024-01-15T14:17:08.962Z,9.55
2024-01-15T14:19:37.338Z,7.28
2024-01-15T14:22:04.980Z,67.12
2024-01-15T14:24:33.410Z,33.65
2024-01-15T14:27:01.256Z,43.87
2024-01-15T14:29:29.044Z,44.65
2024-01-15T14:31:56.593Z,37.35
2024-01-15T14:34:25.428Z,66.05
2024-01-15T14:36:56.820Z,10.40
2024-01-15T14:39:25.762Z,10.35
2024-01-15T14:41:53.592Z,8.63
2024-01-15T14:44:22.283Z,6.68
2024-01-15T14:46:49.684Z,9.43
2024-01-15T14:49:18.277Z,12.60
2024-01-15T14:51:46.178Z,8.60
2024-01-15T14:54:13.671Z,22.30
2024-01-15T14:56:40.837Z,9.55
2024-01-15T14:59:07.936Z,16.17
2024-01-15T15:01:35.606Z,13.65
2024-01-15T15:04:03.463Z,12.82
2024-01-15T15:06:30.807Z,13.57
2024-01-15T15:09:01.508Z,8.30
2024-01-15T15:11:29.221Z,12.75
2024-01-15T15:14:01.374Z,10.23
2024-01-15T15:16:28.685Z,13.73
2024-01-15T15:18:56.037Z,12.48
2024-01-15T15:21:23.509Z,10.52
2024-01-15T15:23:55.975Z,15.60
2024-01-15T15:26:42.949Z,9.55
2024-01-15T15:29:10.347Z,9.70
2024-01-15T15:31:37.737Z,26.20
2024-01-15T15:34:06.962Z,13.45
2024-01-15T15:36:36.644Z,10.35
2024-01-15T15:39:04.264Z,10.27
2024-01-15T15:41:32.294Z,11.50
2024-01-15T15:44:00.072Z,14.55
2024-01-15T15:46:29.263Z,31.75
2024-01-15T15:48:56.719Z,20.65
2024-01-15T15:51:24.098Z,22.40
2024-01-15T15:53:52.900Z,21.58
2024-01-15T15:56:20.037Z,8.75
2024-01-15T15:58:48.507Z,24.12
2024-01-15T16:01:17.079Z,9.18
2024-01-15T16:03:47.602Z,14.48
2024-01-15T16:06:16.285Z,22.60
2024-01-15T16:08:44.957Z,15.55
2024-01-15T16:11:12.266Z,18.37
2024-01-15T16:13:39.297Z,23.85
2024-01-15T16:23:09.692Z,19.42
2024-01-15T16:23:22.824Z,29.17
2024-01-15T16:23:37.709Z,18.65
2024-01-15T16:24:37.973Z,16.83
2024-01-15T16:29:44.384Z,32.80
2024-01-15T16:32:11.932Z,52.42
2024-01-15T16:34:39.532Z,53.00
2024-01-15T16:37:07.625Z,38.83
2024-01-15T16:39:35.807Z,32.25
2024-01-15T16:42:03.464Z,17.20
2024-01-15T16:44:31.759Z,10.68
2024-01-15T16:47:10.590Z,31.65
2024-01-15T16:49:38.529Z,260.50
2024-01-15T16:52:08.267Z,26.12
2024-01-15T16:54:37.440Z,19.58
2024-01-15T16:57:05.601Z,30.48
2024-01-15T16:59:33.243Z,39.88
2024-01-15T17:02:01.080Z,28.25
2024-01-15T17:04:28.497Z,30.42
2024-01-15T17:06:55.575Z,60.65
2024-01-15T17:09:23.301Z,35.72
2024-01-15T17:11:50.757Z,60.28
2024-01-15T17:14:18.781Z,30.00
2024-01-15T17:16:47.462Z,10.05
2024-01-15T17:19:15.406Z,66.32
2024-01-15T17:21:42.535Z,21.58
2024-01-15T17:24:09.579Z,94.00
2024-01-15T17:26:37.493Z,23.25
2024-01-15T17:29:05.360Z,20.77
2024-01-15T17:31:32.510Z,17.77
2024-01-15T17:34:01.316Z,15.27
2024-01-15T17:36:28.451Z,8.85
2024-01-15T17:38:55.545Z,13.52
2024-01-15T17:41:23.658Z,37.83
2024-01-15T17:43:50.683Z,59.20
2024-01-15T17:46:17.696Z,42.40
2024-01-15T17:48:45.482Z,14.38
2024-01-15T17:51:18.066Z,17.37
2024-01-15T17:53:50.049Z,11.00
2024-01-15T17:56:17.161Z,13.20
2024-01-15T17:58:45.023Z,27.55
2024-01-15T18:01:12.999Z,8.95
2024-01-15T18:03:43.178Z,9.70
2024-01-15T18:06:10.886Z,6.03
2024-01-15T18:08:38.625Z,5.85
2024-01-15T18:11:06.032Z,15.30
2024-01-15T18:13:33.602Z,15.85
2024-01-15T18:16:00.674Z,105.65
2024-01-15T18:18:29.184Z,19.30
2024-01-15T18:20:57.248Z,41.30
2024-01-15T18:23:24.331Z,21.60
2024-01-15T18:25:52.127Z,17.27
2024-01-15T18:28:19.661Z,12.55
2024-01-15T18:30:46.700Z,5.80
2024-01-15T18:35:42.425Z,7.57
2024-01-15T18:38:09.676Z,6.82
2024-01-15T18:40:38.161Z,6.20
2024-01-15T18:43:05.264Z,8.15
2024-01-15T18:45:32.877Z,8.02
2024-01-15T18:48:01.706Z,8.05
2024-01-15T18:50:30.065Z,5.78
2024-01-15T18:52:57.229Z,7.68
2024-01-15T18:55:24.759Z,15.00
2024-01-15T18:57:52.392Z,4.85
2024-01-15T19:00:22.102Z,10.70
2024-01-15T19:02:50.289Z,20.45
2024-01-15T19:05:19.059Z,15.80
2024-01-15T19:07:47.435Z,9.05
2024-01-15T19:10:14.934Z,7.50
2024-01-15T19:12:43.445Z,4.93
2024-01-15T19:15:10.689Z,8.18
2024-01-15T19:17:39.378Z,7.90
2024-01-15T19:20:08.814Z,7.45
2024-01-15T19:22:36.964Z,7.65
2024-01-15T19:25:04.498Z,6.68
2024-01-15T19:27:32.364Z,10.38
2024-01-15T19:30:01.865Z,9.30
2024-01-15T19:32:29.332Z,7.60
2024-01-15T19:34:56.493Z,5.57
2024-01-15T19:37:26.383Z,8.40
2024-01-15T19:39:54.840Z,10.02
2024-01-15T19:42:21.860Z,16.98
2024-01-15T19:44:49.426Z,9.45
2024-01-15T19:47:16.756Z,19.58
2024-01-15T19:49:48.940Z,7.47
2024-01-15T19:52:19.323Z,8.93
2024-01-15T19:54:46.639Z,8.05
2024-01-15T19:57:15.158Z,11.50
2024-01-15T19:59:43.643Z,8.65
2024-01-15T20:02:10.733Z,10.52
2024-01-15T20:04:52.060Z,7.10
2024-01-15T20:07:19.074Z,8.90
2024-01-15T20:09:46.374Z,9.00
2024-01-15T20:12:13.447Z,9.02
2024-01-15T20:14:40.458Z,10.55
2024-01-15T20:17:08.043Z,10.68
2024-01-15T20:19:36.155Z,12.30
2024-01-15T20:22:04.335Z,9.40
2024-01-15T20:24:31.759Z,7.75
2024-01-15T20:26:58.777Z,7.45
2024-01-15T20:29:28.094Z,9.68
2024-01-15T20:31:55.411Z,10.63
2024-01-15T20:34:23.353Z,9.32
2024-01-15T20:36:51.952Z,9.40
2024-01-15T20:39:19.268Z,5.37
2024-01-15T20:41:46.906Z,6.32
2024-01-15T20:44:14.169Z,5.75
2024-01-15T20:46:41.447Z,9.43
2024-01-15T20:49:08.563Z,7.12
2024-01-15T20:51:37.941Z,7.47
2024-01-15T20:54:05.230Z,5.78
2024-01-15T20:56:32.266Z,7.03
2024-01-15T20:59:00.677Z,5.07
2024-01-15T21:01:29.324Z,6.28
2024-01-15T21:03:56.464Z,7.97
2024-01-15T21:06:23.543Z,9.07
2024-01-15T21:08:51.121Z,7.95
2024-01-15T21:11:19.980Z,4.72
2024-01-15T21:13:48.872Z,5.37
2024-01-15T21:16:16.455Z,6.75
2024-01-15T21:18:43.522Z,5.95
2024-01-15T21:21:10.928Z,7.07
2024-01-15T21:23:38.285Z,6.62
2024-01-15T21:26:05.737Z,8.85
2024-01-15T21:28:33.584Z,7.20
2024-01-15T21:31:01.060Z,5.50
2024-01-15T21:33:37.836Z,7.50
2024-01-15T21:36:06.074Z,4.90
2024-01-15T21:38:33.166Z,18.17
2024-01-15T21:41:00.374Z,7.20
2024-01-15T21:43:27.737Z,9.13
2024-01-15T21:45:54.767Z,9.13
2024-01-15T21:48:21.912Z,8.85
2024-01-15T21:50:49.363Z,7.32
2024-01-15T21:53:18.420Z,7.18
2024-01-15T21:55:45.504Z,6.55
2024-01-15T21:58:12.867Z,7.15
2024-01-15T22:00:40.813Z,5.37
2024-01-15T22:03:08.698Z,8.70
2024-01-15T22:05:35.913Z,7.32
2024-01-15T22:08:04.176Z,6.00
2024-01-15T22:10:31.565Z,5.78
2024-01-15T22:13:00.183Z,6.70
2024-01-15T22:15:27.661Z,7.62
2024-01-15T22:17:56.059Z,5.70
2024-01-15T22:20:24.229Z,6.45
2024-01-15T22:22:51.403Z,5.15
2024-01-15T22:25:18.683Z,4.25
2024-01-15T22:27:46.168Z,6.32
2024-01-15T22:30:15.264Z,7.50
2024-01-15T22:32:42.701Z,4.43
2024-01-15T22:35:11.591Z,4.72
2024-01-15T22:37:38.953Z,5.60
2024-01-15T22:40:10.151Z,6.10
2024-01-15T22:42:37.733Z,7.00
2024-01-15T22:45:07.018Z,6.75
2024-01-15T22:47:34.610Z,9.63
2024-01-15T22:50:01.751Z,7.87
2024-01-15T22:52:29.799Z,6.90
2024-01-15T22:54:57.627Z,6.65
2024-01-15T22:57:25.138Z,6.28
2024-01-15T22:59:52.712Z,5.62
2024-01-15T23:02:22.175Z,6.30
2024-01-15T23:04:50.077Z,5.95
2024-01-15T23:07:17.180Z,5.32
2024-01-15T23:09:45.035Z,5.72
2024-01-15T23:12:12.301Z,8.48
2024-01-15T23:14:39.553Z,4.57
2024-01-15T23:17:08.895Z,5.70
2024-01-15T23:19:36.708Z,6.05
2024-01-15T23:22:03.917Z,5.12
2024-01-15T23:24:31.684Z,6.00
2024-01-15T23:26:59.733Z,8.40
2024-01-15T23:29:27.063Z,6.22
2024-01-15T23:31:54.890Z,5.97
2024-01-15T23:34:21.944Z,3.70
2024-01-15T23:36:49.521Z,4.90
2024-01-15T23:39:16.896Z,5.60
2024-01-15T23:41:43.944Z,6.10
2024-01-15T23:44:11.697Z,6.32
2024-01-15T23:46:38.981Z,5.22
2024-01-15T23:49:06.631Z,6.93
2024-01-15T23:51:33.636Z,4.53
2024-01-15T23:54:05.931Z,6.95
2024-01-15T23:56:32.969Z,5.28
2024-01-15T23:59:00.283Z,7.03
